Wednesday, September 19, 2018, 3:22 PM EDT
Back to Local

KADW, Camp Springs / Andrews Air Force Base

Location: Andrews Air Force Base, MD, United States Lat: 38.817
Local Time: 3:22 PM EDT (19:22 GMT) Lon: -76.85
Time Zone: US/Eastern Elev: 282 ft

Show me the last for .
Show Coded

Time T Td Feel RH Dir Speed Gust Alt SLP Vis Weather Sky Remarks
2018-09-19 14:56 83 65 86 53 350° 15 20 29.93 29.94 10 CLR None
2018-09-19 13:56 84 67 87 57 340° 14 20 29.93 29.94 10 CLR 6-hr Min Temp (2pm): 72.3°F
6-hr Max Temp (2pm): 83.7°F
2018-09-19 12:56 82 68 86 61 340° 14 21 29.94 29.95 10 FEW120 FEW150 FEW180 None
2018-09-19 12:52 82 68 86 61 320° 12 20 29.94 29.95 10 FEW120 FEW150 FEW180 Wind Shift: 50 min
2018-09-19 11:56 80 68 84 66 350° 12 - 29.94 29.95 10 FEW029 None
2018-09-19 10:56 79 68 82 67 340° 13 - 29.94 29.95 10 CLR None
2018-09-19 09:56 78 68 81 72 340° 13 - 29.94 29.95 10 CLR None
2018-09-19 08:56 75 68 79 76 320° 12 - 29.92 29.93 10 CLR None
2018-09-19 07:56 72 67 76 82 310° 9 - 29.90 29.91 10 CLR 24-hr Precip Total (8am): 0.34"
6-hr Min Temp (8am): 69.6°F
6-hr Max Temp (8am): 72.3°F
2018-09-19 06:56 70 66 76 85 310° 6 - 29.88 29.89 10 CLR None
2018-09-19 05:56 70 66 - 87 310° 5 - 29.87 29.88 10 CLR None
2018-09-19 04:56 70 66 - 86 310° 6 - 29.86 29.87 10 CLR None
2018-09-19 03:56 72 66 76 82 310° 7 - 29.85 29.86 10 CLR None
2018-09-19 02:56 71 66 76 82 310° 8 - 29.84 29.85 10 CLR None
2018-09-19 01:56 72 65 76 79 310° 9 - 29.84 29.85 10 CLR 6-hr Min Temp (2am): 71.8°F
6-hr Max Temp (2am): 75.9°F
2018-09-19 00:56 72 66 76 81 310° 8 - 29.83 29.84 10 CLR 24-hr Min Temp (1am): 71.8°F
24-hr Max Temp (1am): 81.9°F
2018-09-18 23:56 72 65 76 79 310° 7 - 29.84 29.85 10 CLR None
2018-09-18 22:56 74 66 78 74 310° 8 - 29.84 29.85 10 CLR None
2018-09-18 21:56 75 67 78 75 320° 9 - 29.83 29.84 10 CLR None
2018-09-18 20:56 75 68 79 77 310° 7 - 29.83 29.84 10 CLR None
2018-09-18 19:56 76 69 80 77 320° 6 - 29.81 29.82 10 CLR 6-hr Precip Total (8pm): 0.20"
6-hr Min Temp (8pm): 73.8°F
6-hr Max Temp (8pm): 78.8°F
2018-09-18 18:56 78 69 81 75 330° 6 - 29.80 29.81 10 CLR None
2018-09-18 17:56 78 69 82 73 350° 7 - 29.78 29.79 10 FEW100 None
2018-09-18 16:56 78 70 82 74 350° 9 - 29.78 29.79 10 FEW090 1-hr Precip Total: Trace
6-hr Precip Total (5pm): 0.19"
2018-09-18 16:05 75 72 79 88 350° 10 - 29.77 29.78 10 FEW020 BKN033 BKN190 None
2018-09-18 15:56 74 71 78 89 350° 10 - 29.77 29.78 10 -DZ SCT020 SCT190 1-hr Precip Total: Trace
2018-09-18 15:47 73 72 78 94 340° 9 - 29.76 29.77 10 -DZ FEW011 SCT015 None

Support USWX by starting your Amazon purchase here.